Latest Observation

113 Stations

10 Minute Data
as of 9/2/26 5:48 AM PDT
Station Date Time Temp (°F) RH (%) Dew Pt (°F) Wind Spd (mph) Wind Dir (°) Wind Gust (mph) Wind Gst Dir (°) Latest Rain (In) Soil Moist (%) Soil Temp (°F) Daily Rain (In) Daily Min Temp (°F) Daily Max Temp (°F) Daily Max Wind (mph)
Hobart Mills 9/2/26 0540 45.0   4.8 66   6 34.1   2.0 1.6   1.6 SW | 233 10.4   10.4 SW | 228 0.00 7.6   0.1 65.4   1.6 0.00 44.6   4.6 46.7   9.5 14.8   6.6
Prosser Dam 9/2/26 0540 45.0   5.2 63   1 33.0   5.4 3.8   1.2 SSW | 212 6.8   2.2 SW | 227 0.00 5.4   0.0 63.1   1.0 0.00 41.5   8.0 47.3   8.8 9.9   2.2
West Incline Village 9/2/26 0540 41.1   9.1 70   26 32.0   2.9 1.9   1.4 WNW | 296 4.8   2.1 NNW | 344 0.00 11.8   0.1 58.4   0.7 0.00 40.4   8.5 43.5   10.4 15.4   8.4
Incline Village (Fairview Blvd) 9/2/26 0540 43.2   10.0 66   27 32.5   3.6 0.9   0.0 NW | 310 6.2   0.2 NNW | 334 0.00 7.6   0.1 71.7   0.6 0.00 43.1   9.7 45.8   10.3 19.6   12.0
Incline Village (Diamond Peak) 9/2/26 0540 40.6   9.5 70   26 31.6   2.6 4.4   0.2 WNW | 296 8.8   0.6 W | 280 0.00 2.5   0.0 61.0   1.6 0.00 40.6   9.3 43.4   9.4 10.2   2.0
Incline Village (Mill Creek) 5/30/36 1610 74.5 37 46.5 0.5 SW | 236 1.7 SSW | 213 0.00 0.0 0.0 0.00 74.4 74.5 1.7
Incline Village (Lakeshore Blvd) 9/2/26 0540 47.9   2.1 68   12 37.7   3.1 1.4   1.0 WSW | 254 5.2   2.9 WSW | 241 0.00 23.9   1.6 58.0   1.3 0.00 47.7   1.5 51.8   0.5 16.3   10.6
Glenbrook 9/2/26 0540 48.8   7.8 57   23 34.1   5.5 5.7   2.8 WSW | 241 11.4   2.2 WSW | 248 0.00 43.0   0.1 59.1   0.4 0.00 48.7   4.4 53.1   5.7 18.9   4.8
Zephyr Cove 9/2/26 0540 45.3   7.2 55   16 30.2   1.5 0.6   0.4 SE | 129 3.5   2.0 SE | 131 0.00 2.8   0.0 61.2   3.4 0.00 45.2   6.9 48.7   8.9 6.8   3.2
Kingsbury Grade 9/2/26 0540 43.2   8.3 56   17 28.8   1.3 0.9   0.2 NW | 325 3.1   1.4 NNW | 335 0.00 2.3   0.1 67.4   1.7 0.00 42.8   7.5 46.6   8.5 10.3   4.7
South Daggett Pass (Ridge) 9/2/26 0540 40.0   9.6 61   22 27.6   1.8 1.4   3.4 W | 275 7.5   5.3 WSW | 258 0.00 2.2   0.0 64.2   0.5 0.00 39.9   8.2 44.0   9.2 23.1   5.3
Palomino Valley 9/2/26 0540 52.9   3.1 45   1 32.2   2.4 8.2   7.1 NE | 34 14.3   10.9 NE | 43 0.00 6.7   0.0 77.6   1.0 0.00 49.5   6.1 56.8   7.8 29.8   25.2
East Cold Springs 9/2/26 0540 48.4   10.7 54   15 32.7   2.0 5.0   5.0 SW | 231 9.2   12.3 WSW | 244 0.00 1.6   0.1 71.6   0.9 0.00 46.6   11.9 50.8   12.0 22.0   1.7
Peavine 8/22/26 1700 81.6   1.5 27   0 44.0   1.5 22.7   10.4 SW | 225 48.4   26.2 SW | 220 0.00 - 53.4   0.0 0.00 69.4   2.1 87.6   2.1 48.4   26.2
West Verdi Peak 9/2/26 0640 43.5   8.7 63   8 31.8   4.6 0.8   3.2 SSE | 166 3.8   5.6 ESE | 120 0.00 6.6   0.1 69.4   1.2 0.00 43.3   8.7 45.6   13.0 13.8   3.0
West Verdi 9/2/26 0540 50.9   10.5 50   16 32.8   0.1 3.8   6.8 NNE | 27 9.2   13.0 NNE | 14 0.00 6.2   0.0 80.8   1.2 0.00 50.2   10.7 53.5   10.1 26.7   2.2
South Verdi 9/2/26 0540 50.0   8.2 49   13 31.4   0.2 8.1   8.5 W | 268 16.5   5.5 W | 270 0.00 10.5   0.2 69.9   2.9 0.00 49.1   9.0 52.1   9.3 31.2   7.3
Northwest Reno 9/2/26 0540 52.5   10.0 45   15 32.0   1.1 21.8   1.3 W | 268 29.6   2.1 W | 263 0.00 25.2   0.1 77.0   2.2 0.00 52.0   10.2 54.0   11.2 37.0   8.1
North Lawton 8/28/26 1620 63.8   17.1 74   52 55.4   16.5 1.5   11.6 ESE | 121 5.1   19.0 SE | 124 0.00 - 78.2   0.0 0.05 59.2   7.5 71.9   13.3 20.4   4.6
West Reno (Mogul) 9/2/26 0540 51.6   8.5 47   11 32.1   0.8 6.7   2.0 SW | 219 14.5   1.5 SSW | 194 0.00 19.6   0.1 79.5   0.0 0.00 51.1   8.7 54.2   12.7 19.4   0.2
Caughlin (Hunter Lake Trail) 9/2/26 0540 50.6   8.3 48   10 31.8   1.5 0.0   2.7 N | 0 0.0   10.6 SW | 227 0.00 16.6   0.1 74.4   0.9 0.00 50.0   8.3 53.9   10.6 19.6   7.1
ArrowCreek 9/2/26 0540 51.6   5.4 46   1 31.3   4.4 5.6   0.7 SSE | 162 8.4   2.1 S | 180 0.00 - 32.0   0.0 0.00 50.5   5.0 54.9   10.1 13.0   1.9
Tracy 9/2/26 0540 56.8   7.9 39   4 31.9   4.3 4.6   3.2 W | 263 9.9   0.2 W | 272 0.00 15.9   0.2 79.6   1.6 0.00 56.2   8.1 61.6   9.5 21.2   6.6
Virginia Highlands 9/2/26 0540 49.4   8.8 50   12 31.6   1.5 5.5   2.2 S | 174 10.9   0.2 SSE | 167 0.00 8.0   0.0 74.8   0.2 0.00 48.7   9.3 51.2   11.2 24.6   13.0
Virginia City 9/2/26 0540 48.2   8.9 48   21 29.5   6.4 2.5   0.5 S | 170 5.7   1.2 S | 170 0.00 4.8   0.1 74.0   1.8 0.00 48.1   8.6 52.6   10.1 30.2   8.6
Six Mile Canyon 9/2/26 0540 55.2   10.3 34   10 27.4   0.3 2.2   4.2 NE | 41 4.3   4.6 NNE | 26 0.00 12.3   0.2 77.0   2.4 0.00 54.5   10.6 60.3   10.2 17.1   1.7
Mt Rose Highway 9/2/26 0540 43.7   9.6 58   26 30.0   6.0 2.9   0.2 ENE | 69 7.9   3.1 NE | 45 0.00 7.4   0.1 62.3   0.6 0.00 43.6   9.3 45.9   11.9 35.2   10.8
Pleasant Valley 9/2/26 0540 55.6   1.2 43   3 33.5   2.8 11.2   9.6 SW | 225 16.0   11.1 SW | 225 0.00 2.3   0.0 78.7   0.8 0.00 55.4   1.7 57.4   6.9 29.4   23.6
New Washoe City 9/2/26 0540 54.1   6.9 47   13 34.1   2.3 8.7   3.6 SW | 222 15.0   7.2 SSW | 212 0.00 3.5   0.0 74.2   0.4 0.00 52.3   8.6 56.0   10.6 21.2   4.1
Franktown Creek 9/2/26 0540 54.2   9.5 48   19 35.2   3.9 6.0   1.6 S | 186 14.7   4.0 S | 176 0.00 7.0   0.0 73.0   0.2 0.00 54.0   7.4 56.5   13.1 29.3   2.1
Musgrove Creek 9/2/26 0540 50.7   8.5 52   18 33.6   2.6 1.2   0.7 NW | 307 4.0   0.4 NW | 304 0.00 10.2   0.1 60.8   0.1 0.00 50.2   8.6 53.4   10.1 14.3   1.1
East Carson 11/23/24 0110 28.6   28.4 - - 4.7   11.0 SW | 220 14.7   10.1 SW | 219 0.02 - 50.9   0.1 0.02 -25.9   79.1 42.9   14.6 16.0   10.7
Kings Canyon 9/2/26 0540 52.9   11.6 43   24 31.0   10.1 2.8   3.3 SE | 127 7.8   11.6 SE | 142 0.00 4.2   0.0 68.9   1.7 0.00 52.1   12.0 56.2   12.3 18.8   12.9
Carson City (Voltaire Canyon) 9/2/26 0540 55.2   9.0 39   17 30.7   6.1 10.7   0.4 SW | 226 20.0   0.7 SW | 219 0.00 2.8   0.0 79.2   0.1 0.00 54.8   9.1 57.2   11.9 26.0   0.9
Jacks Valley 9/2/26 0540 54.1   9.8 39   17 29.7   5.6 12.8   2.0 SSW | 212 19.6   2.1 SSW | 209 0.00 4.6   0.0 74.8   2.7 0.00 52.7   10.3 57.7   9.3 32.4   6.6
Genoa 9/2/26 0540 53.9   10.9 41   16 30.8   2.5 0.7   0.1 W | 267 4.1   1.6 NW | 309 0.00 2.3   0.1 63.7   4.2 0.00 53.1   11.3 57.9   11.6 10.1   3.8
South Genoa (Walleys Hot Springs) 9/2/26 0540 58.4   8.8 34   11 30.0   2.5 8.6   1.5 SW | 226 14.8   1.4 SW | 234 0.00 5.6   0.9 74.9   0.2 0.00 58.1   3.1 60.8   9.5 24.2   2.5
SW Gardnerville (HWY 88) 9/2/26 0540 54.4   8.9 39   12 30.2   1.5 2.8   1.9 SSW | 213 6.7   1.1 ESE | 121 0.00 2.8   0.0 70.7   0.4 0.00 51.7   7.9 58.8   7.9 23.0   9.8
Sheridan 9/2/26 0540 52.1   11.7 39   14 28.0   0.3 3.4   3.2 W | 279 7.8   7.0 NNW | 332 0.00 1.1   0.1 73.6   1.8 0.00 51.1   7.6 59.9   8.0 22.5   7.7
Ruhenstroth 9/2/26 0540 55.2   7.6 37   9 29.5   0.0 16.4   5.5 S | 170 28.4   12.0 SSE | 164 0.00 6.8   0.1 72.5   3.9 0.00 54.8   7.8 57.8   9.9 28.4   8.0
Double Spring 9/2/26 0540 45.3   8.9 49   9 27.5   3.4 2.2   0.2 WNW | 302 4.3   0.7 WNW | 287 0.00 25.3   0.4 69.6   3.6 0.00 44.3   8.1 51.8   9.0 14.8   2.6
North Topaz Lake 9/2/26 0540 53.5   8.9 29   4 22.2   3.6 5.7   0.7 WNW | 283 9.1   2.1 WSW | 258 0.00 7.4   0.1 65.9   3.8 0.00 52.8   9.1 57.6   10.5 17.9   1.6
Wild Oat Mountain 9/2/26 0540 51.2   8.8 31   4 21.3   3.9 5.9   2.7 SW | 226 11.9   4.2 SW | 225 0.00 5.7   0.1 68.9   3.1 0.00 49.8   9.2 56.2   8.9 25.7   4.6
Smith Valley 9/2/26 0540 56.2   8.4 25   1 20.8   6.6 2.2   1.2 NW | 312 5.3   5.8 NW | 314 0.00 2.8   0.0 76.6   1.8 0.00 53.7   8.8 64.2   7.6 27.2   12.4
Pine Grove Mountain 9/2/26 0540 44.8   7.3 27   11 12.5   14.3 7.1   6.7 SSE | 150 14.2   12.2 SSW | 203 0.00 7.0   0.2 64.4   2.1 0.00 44.2   7.8 49.4   8.1 25.1   15.2
Paradise Hill 9/2/26 0540 54.6   4.4 37   6 28.8   0.0 10.3   9.4 SSE | 164 15.8   13.5 S | 178 0.00 10.1   0.1 74.1   0.7 0.00 54.1   1.2 65.6   0.8 32.2   22.5
Winnemucca 9/2/26 0540 54.7   12.5 37   10 28.8   2.8 14.2   6.7 WSW | 238 21.2   10.2 WSW | 247 0.00 5.8   0.0 75.8   0.5 0.00 52.5   12.7 61.2   10.0 31.3   17.9
NE Elko 9/2/26 0540 59.1   11.6 21   38 18.8   14.7 10.8   6.0 SW | 221 18.1   11.8 SW | 227 0.00 5.7   0.1 71.8   1.0 0.00 58.9   12.2 68.6   14.5 27.0   17.5
North Elko 9/2/26 0540 53.5   4.8 23   25 16.2   22.2 4.1   2.0 S | 180 6.7   0.5 SSE | 163 0.00 24.9   0.1 72.8   0.9 0.00 52.7   4.8 64.2   2.3 23.6   11.6
South Elko 9/2/26 0540 52.5   4.0 24   30 17.0   23.0 9.9   5.6 W | 279 15.8   7.4 NW | 305 0.00 13.7   0.0 68.4   0.4 0.00 52.2   3.5 - 17.1   1.6
Lamoille 9/2/26 0540 53.3   4.3 25   24 18.7   19.9 9.5   6.2 SW | 228 13.9   6.6 SW | 228 0.00 6.4   0.1 67.2   0.2 0.00 53.2   1.5 70.0   10.6 28.0   17.4
Reid Gardner Sub 9/2/26 0540 77.8   5.4 16   37 28.2   26.0 6.8   5.2 S | 169 11.3   7.7 S | 187 0.00 24.2   2.1 88.9   1.5 0.00 77.2   5.3 84.4   0.5 17.5   10.9
Corn Creek 9/2/26 0540 71.3   2.6 16   13 22.2   17.5 6.3   2.3 E | 94 11.3   1.1 E | 98 0.00 3.1   0.1 85.8   3.1 0.00 68.7   4.7 79.1   2.9 17.3   10.4
Lucky Strike 9/2/26 0540 64.8   0.2 14   5 13.9   7.4 6.7   0.6 W | 260 13.0   2.7 WSW | 254 0.00 3.1   0.1 80.1   1.9 0.00 61.6   3.3 71.1   2.0 23.7   5.1
Lower Angel Peak 9/2/26 0540 54.4   9.9 16   13 8.6   22.4 5.2   7.9 S | 181 7.5   19.1 S | 174 0.00 3.2   0.0 73.9   1.1 0.00 54.1   5.9 65.7   1.3 18.8   9.7
Angel Peak 9/2/26 0540 53.1   1.4 11   27 0.6   26.7 7.8   19.3 SE | 127 12.0   23.1 SE | 136 0.00 2.5   0.0 62.5   1.5 0.00 52.0   0.7 56.3   1.3 45.2   7.9
Upper Kyle Canyon 9/2/26 0540 56.8   0.5 12   21 4.0   24.3 10.0   4.5 NNW | 341 25.6   5.1 NW | 322 0.00 7.8   0.0 75.5   0.6 0.00 56.3   0.6 58.1   2.1 33.5   8.6
Mt Charleston 9/2/26 0540 57.3   1.2 12   19 5.5   22.4 7.1   4.5 NW | 308 20.1   9.6 NW | 312 0.00 13.2   0.1 68.8   0.5 0.00 56.0   2.1 58.5   2.2 31.9   2.2
Mid Kyle Canyon 9/2/26 0540 61.7   3.2 11   17 6.9   23.8 10.2   2.4 W | 273 24.5   9.0 WSW | 257 0.00 5.8   0.0 75.0   0.7 0.00 60.4   0.8 65.7   2.1 28.6   4.5
Blue Diamond 9/2/26 0540 68.4   5.9 17   0 22.0   4.5 7.3   4.2 NW | 310 11.0   5.3 WNW | 300 0.00 1.2   0.0 85.8   1.2 0.00 67.2   4.4 77.5   3.1 20.1   5.5
Artesian Sub 9/2/26 0540 80.7   0.7 12   11 23.6   16.3 9.2   7.1 SSE | 159 21.4   17.3 SSE | 154 0.00 11.7   0.0 93.7   0.4 0.00 80.0   1.2 85.2   3.0 21.4   9.3
North Henderson 9/2/26 0540 80.9   1.3 13   29 24.7   31.8 4.3   1.6 SSW | 197 9.7   1.2 SSE | 160 0.00 10.6   0.1 97.6   0.8 0.00 80.8   1.1 85.8   3.2 23.2   8.5
Sandy Valley 9/2/26 0540 71.9   4.0 18   2 25.6   5.8 3.1   0.6 E | 92 6.7   0.5 ENE | 66 0.00 8.1   0.3 87.6   2.4 0.00 69.9   3.4 75.6   4.0 11.6   0.6
Searchlight 9/2/26 0550 69.8   1.2 18   52 24.5   34.2 2.6   2.6 NW | 319 5.8   5.8 WNW | 288 0.00 5.9   0.2 86.0   1.5 0.00 68.4   0.2 75.9   3.2 17.9   12.4
Laughlin 9/2/26 0540 83.2   3.3 20   34 37.5   30.4 1.8   3.9 ENE | 78 3.5   4.7 ESE | 111 0.00 4.5   0.0 100.4   0.7 0.00 82.6   3.6 91.7   2.5 12.7   0.6
31Mission Hills 9/2/26 0540 78.0   0.4 12   36 20.4   35.5 7.2   0.6 S | 180 14.2   4.2 SE | 124 0.00 6.8   0.3 85.8   1.7 0.00 77.1   0.3 81.8   1.0 20.5   3.7
32 Enterprise Sierra Cliffs 9/2/26 0540 72.9   4.1 12   1 17.7   4.5 15.1   6.2 SSW | 205 25.3   10.4 SW | 216 0.00 1.3   0.1 82.1   3.2 0.00 72.4   4.2 77.4   4.0 28.3   8.4
29 Calico Basin 9/2/26 0540 71.6   3.3 12   0 16.4   3.6 13.0   5.7 SW | 217 21.7   11.2 SW | 221 0.00 2.5   0.1 84.2   3.1 0.00 70.7   3.0 75.2   4.4 30.4   11.6
28 Indian Springs 9/2/26 0540 66.5   4.5 17   8 19.8   13.7 2.7   2.3 ENE | 62 5.2   3.6 E | 96 0.00 4.6   0.1 87.2   1.7 0.00 66.0   3.4 78.1   1.6 26.6   15.4
30 Jean 9/2/26 0540 69.6   0.5 14   10 18.2   12.5 12.6   12.4 SW | 215 17.8   16.6 SW | 218 0.00 5.1   0.2 83.2   2.5 0.00 67.4   1.6 74.1   2.6 21.5   11.8
VC Highlands NW 9/2/26 0540 47.5   8.8 49   13 29.3   0.1 4.4   0.8 SE | 146 8.8   2.2 ESE | 115 0.00 1.5   0.1 63.0   4.2 0.00 47.0   9.0 49.5   11.2 32.4   16.3
Glenbrook-Spooner Summit 9/2/26 0540 42.3   9.9 57   27 28.2   6.8 1.1   1.0 W | 273 3.6   6.3 WNW | 288 0.00 7.8   0.1 65.3   2.2 0.00 41.7   10.1 46.4   8.6 22.1   7.4
Hobo Hot Springs 9/2/26 0540 56.2   4.8 35   9 28.9   3.2 8.0   3.1 SW | 227 14.7   2.9 SW | 236 0.00 1.0   0.0 69.9   1.2 0.00 56.0   1.9 59.2   6.8 22.8   2.4
Jack Valley Ranch 2 9/2/26 0540 52.6   11.6 40   21 29.1   7.4 2.7   10.7 WSW | 247 7.9   18.9 SW | 226 0.00 2.2   0.0 75.8   1.4 0.00 52.3   10.4 57.7   9.5 35.3   0.2
Genoa North 2 9/2/26 0540 54.6   11.0 37   17 28.6   5.4 5.3   3.6 WSW | 250 10.8   16.4 WSW | 249 0.00 0.9   0.0 74.9   2.3 0.00 54.2   10.6 57.2   10.7 23.1   4.1
Mottsville 2 9/2/26 0540 55.1   9.7 35   14 28.1   3.8 8.2   2.9 NNW | 330 12.3   0.1 NNW | 330 0.00 1.3   0.1 73.6   1.1 0.00 53.5   5.5 60.2   7.3 16.4   2.7
Kingsbury Village 3 9/2/26 0540 39.2   8.5 59   20 26.1   2.1 2.0   0.3 NNW | 344 4.7   4.4 NW | 322 0.00 3.1   0.0 60.9   2.0 0.00 39.1   8.2 41.7   10.1 14.3   5.2
Kingsbury-Benjamin Dr 2 9/2/26 0540 41.6   8.5 54   19 26.4   2.6 1.6   1.4 WSW | 254 6.1   5.2 SSW | 212 0.00 3.1   0.2 67.4   3.1 0.00 41.5   7.6 44.0   10.2 14.7   1.0
Smith Valley-Wellington 9/2/26 0540 56.4   8.5 23   2 19.5   5.2 6.8   2.1 SSW | 212 11.6   5.6 SW | 228 0.00 3.6   0.0 81.2   1.3 0.00 54.8   9.1 62.1   6.3 22.8   4.7
Sheridan South 2 9/2/26 0540 52.3   6.5 35   4 25.3   2.4 6.9   5.1 W | 275 9.9   4.7 W | 277 0.00 0.5   0.0 73.0   2.2 0.00 51.0   7.2 58.6   8.6 14.8   4.6
Silver Springs 9/2/26 0540 59.7   8.4 24   1 22.9   8.6 12.1   8.1 W | 278 17.5   8.1 W | 278 0.00 5.1   0.0 80.3   2.5 0.00 55.0   12.7 62.6   11.0 39.4   18.1
Fernley 9/2/26 0540 55.7   8.6 34   3 28.0   5.6 2.5   1.4 NNE | 25 5.0   0.9 NNW | 344 0.00 3.2   0.1 74.4   3.9 0.00 53.1   10.9 63.6   6.6 27.2   12.8
Spanish Springs 9/2/26 0540 54.2   1.5 41   7 30.8   5.3 0.1   1.2 E | 96 1.0   2.4 SE | 124 0.00 10.5   0.2 77.3   2.0 0.00 53.6   1.8 57.1   9.8 21.6   14.7
Suttcliffe South 2 9/2/26 0540 51.2   12.0 43   13 29.7   2.3 1.0   3.1 WSW | 246 3.0   2.5 WNW | 289 0.00 4.3   0.2 72.0   3.3 0.00 50.3   12.0 58.0   9.8 24.6   15.4
Lemmon Valley North 9/2/26 0540 50.2   11.1 49   16 31.7   0.0 11.4   2.5 SSW | 203 16.8   4.6 SSW | 196 0.00 2.1   0.0 72.6   1.2 0.00 45.8   15.2 51.4   13.5 18.6   6.2
Lemmon Valley NW 3 9/2/26 0540 51.8   12.1 45   22 31.1   5.3 6.6   5.9 W | 279 12.4   9.6 SW | 234 0.00 1.2   0.1 72.0   3.8 0.00 49.8   12.6 54.8   10.1 23.2   0.4
VC Highlands North 9/2/26 0540 48.9   9.6 46   13 29.0   0.4 0.7   5.0 SSE | 164 3.1   8.8 SW | 222 0.00 4.6   0.3 63.1   5.9 0.00 42.9   14.2 51.1   10.9 26.8   8.6
Upper Voltaire Cyn 9/2/26 0540 50.3   10.5 43   22 28.6   8.1 4.4   7.7 S | 181 9.9   11.7 SSW | 206 0.00 1.1   0.0 71.6   2.5 0.00 50.0   10.3 53.4   11.3 22.5   10.3
Yerington NW 9/2/26 0540 57.4   3.5 29   15 25.4   13.5 14.1   12.5 W | 259 18.4   12.5 WSW | 252 0.00 7.2   0.1 74.7   1.6 0.00 56.4   2.5 60.8   6.2 30.1   22.7
Spanish Springs SW 9/2/26 0540 54.5   6.0 39   7 30.0   0.1 7.8   4.2 WSW | 252 15.0   9.3 W | 272 0.00 1.4   0.1 73.8   3.4 0.00 52.8   6.1 57.4   6.9 22.6   14.5
Cosgrave 2 8/27/26 0750 62.9   4.1 34   3 33.8   1.4 2.6   0.5 WSW | 246 4.1   1.0 W | 267 0.00 3.8   0.1 77.4   2.9 0.00 62.7   3.3 77.4   3.5 11.2   3.9
Winnemucca-Grass Valley 2 9/2/26 0540 47.9   9.6 38   12 23.7   15.3 6.9   3.3 SE | 127 9.7   3.2 SE | 126 0.00 7.8   0.0 65.7   1.5 0.00 46.0   9.4 62.1   8.6 20.9   5.7
Winnemucca-Dutch Flat Rd 9/2/26 0540 53.0   7.7 38   8 28.2   1.2 11.5   7.8 SW | 232 17.8   11.1 SW | 233 0.00 6.2   0.0 74.6   0.1 0.00 52.9   7.1 62.1   7.8 30.8   15.8
Paradise Valley 2 9/2/26 0540 53.6   2.5 30   6 22.8   6.3 10.1   4.9 SSE | 168 18.3   11.8 S | 169 0.00 12.8   0.1 73.2   0.7 0.00 52.6   0.2 63.0   1.3 23.1   14.3
Golconda 2 9/2/26 0540 55.4   6.2 29   3 23.9   8.2 13.3   9.6 N | 350 22.1   15.0 N | 2 0.00 1.9   0.0 74.0   0.8 0.00 53.8   6.6 64.0   5.0 37.3   29.2
Battle Mountain - South 9/2/26 0540 45.0   18.9 31   3 16.4   13.9 2.5   2.6 WSW | 247 4.3   2.7 WSW | 240 0.00 9.1   0.1 74.5   0.4 0.00 44.0   13.8 63.0   5.0 9.4   2.0
Geiger Summit 9/2/26 0540 45.9   8.5 100   0 45.9   8.5 8.6   0.6 S | 191 13.8   1.2 S | 177 0.00 6.3   0.1 60.3   5.3 0.00 42.7   11.5 47.0   11.1 17.0   4.0
Combs Canyon 3 9/2/26 0540 54.3   9.7 39   19 29.6   7.5 3.6   3.9 S | 188 7.9   4.8 SSW | 203 0.00 0.9   0.1 73.3   2.7 0.00 52.2   11.3 57.6   11.0 17.3   1.4
Clear Creek 9/2/26 0540 50.7   10.5 43   22 28.9   7.8 1.8   9.8 S | 186 6.3   15.2 WSW | 242 0.00 3.4   0.1 70.8   2.4 0.00 50.5   10.6 53.9   11.4 17.5   16.0
Eastlake 2 9/2/26 0540 54.5   9.9 39   16 30.0   4.2 4.1   3.7 S | 185 9.1   5.2 SE | 126 0.00 3.4   0.0 72.9   1.8 0.00 52.5   10.6 56.5   10.4 27.7   5.5
Lovelock-Colado 2 9/2/26 0540 47.2   9.8 35   1 21.2   9.4 4.1   2.3 NNE | 32 7.0   2.7 NNE | 17 0.00 - 76.2   1.8 0.00 46.2   9.7 60.7   10.2 7.7   0.5
Spanish Springs NW 9/2/26 0540 54.6   5.1 40   3 30.5   2.5 3.1   3.1 E | 101 6.0   5.0 ENE | 64 0.00 12.6   0.1 69.6   1.8 0.00 54.3   5.2 57.7   10.2 20.6   10.6
Battle Mountain NW 9/2/26 0540 58.3   4.7 21   11 19.1   14.3 7.3   4.6 W | 273 13.0   7.2 WNW | 289 0.00 8.9   0.1 77.6   0.2 0.00 55.6   5.5 65.3   7.9 21.7   5.3
Austin 2 9/2/26 0440 44.2   9.8 37   6 19.9   4.4 1.5   0.3 S | 178 4.1   1.0 SW | 224 0.00 2.1   0.0 57.5   0.4 0.00 40.8   8.3 49.0   15.2 9.6   7.2
Elko-Osino 9/2/26 0540 52.5   3.4 24   34 16.6   18.2 8.4   5.0 SSW | 207 11.4   6.2 SSW | 197 0.00 1.4   0.0 74.6   0.7 0.00 52.0   4.7 64.7   8.4 17.0   6.6
Elko-Bill Fishpond 2 9/2/26 0540 55.3   5.5 23   35 17.8   17.6 8.0   3.6 SSW | 202 15.6   9.4 SSW | 206 0.00 3.4   0.0 66.6   0.3 0.00 52.2   3.5 61.9   5.4 15.6   7.0
Spring Creek SE 2 9/2/26 0540 51.6   1.0 24   31 15.9   21.0 4.5   0.9 SW | 223 9.2   3.8 WSW | 250 0.00 0.3   0.0 68.8   1.0 0.00 50.7   0.4 64.8   4.1 29.1   19.4
Spring Creek NW 9/2/26 0540 55.0   1.9 20   26 15.2   21.7 12.3   10.1 WNW | 287 19.1   15.2 WNW | 296 0.00 2.2   0.0 71.7   0.4 0.00 54.9   1.3 61.5   0.8 21.4   11.5
Elko-Moleen 9/2/26 0540 53.4   9.0 23   18 16.3   21.7 7.4   4.1 SSW | 198 9.9   5.5 SSW | 211 0.00 6.4   0.1 77.8   1.3 0.00 51.8   8.3 62.1   6.7 21.2   1.5
Elko-West 9/2/26 0540 53.6   1.1 23   27 16.5   20.0 6.5   1.5 SW | 233 10.2   0.4 WSW | 242 0.00 33.2   0.1 66.0   0.5 0.00 51.5   2.1 61.3   0.8 16.9   2.0
Elko-Adobe Creek 9/2/26 0540 47.8 25 13.4 3.0 W | 281 4.6 W | 272 0.00 18.6 68.9 0.00 47.5 57.1 20.6
Tuscarora SW 9/2/26 0540 47.4 27 14.7 2.5 W | 265 5.0 SW | 215 0.00 7.0 74.0 0.00 47.0 57.6 13.2
Elko-Monument Peak 9/2/26 0540 44.9 28 14.0 2.5 W | 278 5.2 W | 277 0.00 3.7 69.4 0.00 43.5 54.8 9.8
Max     83.2 100 46.5 21.8 - 29.6 - 0.00 43.0 100.4 0.00 82.6 91.7 45.2
Avg     54.3 37 25.6 5.9 - 11.0 - 0.00 7.1 72.0 - - - -
Min     39.2 11 0.6 0.0 - 0.0 - 0.00 0.0 0.0 0.00 39.1 41.7 1.7